sensor_id;sensor_type;location;lat;lon;timestamp;pressure;altitude;pressure_sealevel;temperature;humidity
18821;BME280;9539;59.332;18.034;2023-11-19T00:01:02;101620.16;;;5.40;57.25
18821;BME280;9539;59.332;18.034;2023-11-19T00:03:25;101620.84;;;3.94;62.61
18821;BME280;9539;59.332;18.034;2023-11-19T00:05:48;101615.16;;;5.30;60.42
18821;BME280;9539;59.332;18.034;2023-11-19T00:08:11;101612.03;;;5.82;58.37
18821;BME280;9539;59.332;18.034;2023-11-19T00:10:33;101600.53;;;4.82;59.85
18821;BME280;9539;59.332;18.034;2023-11-19T00:12:55;101607.09;;;5.70;58.90
18821;BME280;9539;59.332;18.034;2023-11-19T00:15:19;101598.50;;;5.29;59.32
18821;BME280;9539;59.332;18.034;2023-11-19T00:17:41;101601.03;;;5.66;58.88
18821;BME280;9539;59.332;18.034;2023-11-19T00:20:06;101594.22;;;4.13;62.66
18821;BME280;9539;59.332;18.034;2023-11-19T00:22:28;101592.59;;;4.86;61.21
18821;BME280;9539;59.332;18.034;2023-11-19T00:24:50;101590.19;;;5.12;60.05
18821;BME280;9539;59.332;18.034;2023-11-19T00:27:11;101577.38;;;5.32;59.59
18821;BME280;9539;59.332;18.034;2023-11-19T00:29:33;101580.53;;;6.10;57.72
18821;BME280;9539;59.332;18.034;2023-11-19T00:31:56;101578.50;;;5.22;60.01
18821;BME280;9539;59.332;18.034;2023-11-19T00:34:18;101579.91;;;3.84;61.14
18821;BME280;9539;59.332;18.034;2023-11-19T00:36:43;101580.63;;;3.92;63.75
18821;BME280;9539;59.332;18.034;2023-11-19T00:39:05;101573.25;;;4.50;62.33
18821;BME280;9539;59.332;18.034;2023-11-19T00:41:27;101570.50;;;4.54;61.80
18821;BME280;9539;59.332;18.034;2023-11-19T00:43:49;101567.78;;;5.31;59.74
18821;BME280;9539;59.332;18.034;2023-11-19T00:46:11;101571.91;;;5.06;60.76
18821;BME280;9539;59.332;18.034;2023-11-19T00:48:35;101558.22;;;4.56;60.43
18821;BME280;9539;59.332;18.034;2023-11-19T00:50:57;101558.31;;;4.89;60.18
18821;BME280;9539;59.332;18.034;2023-11-19T00:53:19;101552.94;;;4.58;62.22
18821;BME280;9539;59.332;18.034;2023-11-19T00:55:41;101547.63;;;5.93;58.24
18821;BME280;9539;59.332;18.034;2023-11-19T00:58:03;101550.44;;;6.17;56.96
18821;BME280;9539;59.332;18.034;2023-11-19T01:00:25;101550.13;;;5.98;56.45
18821;BME280;9539;59.332;18.034;2023-11-19T01:02:48;101548.00;;;5.80;57.14
18821;BME280;9539;59.332;18.034;2023-11-19T01:05:12;101552.56;;;4.73;60.23
18821;BME280;9539;59.332;18.034;2023-11-19T01:07:35;101549.09;;;4.72;61.36
18821;BME280;9539;59.332;18.034;2023-11-19T01:09:57;101555.72;;;4.87;60.37
18821;BME280;9539;59.332;18.034;2023-11-19T01:12:19;101555.91;;;4.42;58.73
18821;BME280;9539;59.332;18.034;2023-11-19T01:14:41;101548.38;;;4.64;59.97
18821;BME280;9539;59.332;18.034;2023-11-19T01:17:03;101553.47;;;5.72;58.28
18821;BME280;9539;59.332;18.034;2023-11-19T01:19:26;101555.34;;;5.69;57.76
18821;BME280;9539;59.332;18.034;2023-11-19T01:21:50;101517.78;;;5.31;58.09
18821;BME280;9539;59.332;18.034;2023-11-19T01:24:12;101538.06;;;5.26;58.57
18821;BME280;9539;59.332;18.034;2023-11-19T01:26:34;101536.19;;;5.31;59.10
18821;BME280;9539;59.332;18.034;2023-11-19T01:28:56;101536.91;;;5.38;57.30
18821;BME280;9539;59.332;18.034;2023-11-19T01:31:18;101537.25;;;3.73;63.36
18821;BME280;9539;59.332;18.034;2023-11-19T01:33:40;101538.00;;;4.94;60.85
18821;BME280;9539;59.332;18.034;2023-11-19T01:36:02;101536.22;;;5.62;58.00
18821;BME280;9539;59.332;18.034;2023-11-19T01:38:26;101534.34;;;4.65;61.24
18821;BME280;9539;59.332;18.034;2023-11-19T01:40:48;101529.09;;;4.99;60.69
18821;BME280;9539;59.332;18.034;2023-11-19T01:43:10;101527.41;;;4.98;59.78
18821;BME280;9539;59.332;18.034;2023-11-19T01:45:40;101521.63;;;5.50;59.01
18821;BME280;9539;59.332;18.034;2023-11-19T01:48:02;101525.22;;;5.46;59.47
18821;BME280;9539;59.332;18.034;2023-11-19T01:50:25;101525.63;;;3.85;63.19
18821;BME280;9539;59.332;18.034;2023-11-19T01:52:48;101528.94;;;3.51;65.35
18821;BME280;9539;59.332;18.034;2023-11-19T01:55:12;101519.56;;;3.38;67.20
18821;BME280;9539;59.332;18.034;2023-11-19T01:57:35;101504.59;;;4.26;64.75
18821;BME280;9539;59.332;18.034;2023-11-19T01:59:58;101504.81;;;4.90;63.00
18821;BME280;9539;59.332;18.034;2023-11-19T02:02:20;101503.44;;;5.09;60.99
18821;BME280;9539;59.332;18.034;2023-11-19T02:04:42;101494.50;;;5.16;62.06
18821;BME280;9539;59.332;18.034;2023-11-19T02:07:04;101490.22;;;4.78;63.40
18821;BME280;9539;59.332;18.034;2023-11-19T02:09:26;101487.59;;;5.12;61.71
18821;BME280;9539;59.332;18.034;2023-11-19T02:11:50;101483.25;;;5.73;60.17
18821;BME280;9539;59.332;18.034;2023-11-19T02:14:12;101490.59;;;4.98;60.50
18821;BME280;9539;59.332;18.034;2023-11-19T02:16:34;101482.22;;;5.47;59.79
18821;BME280;9539;59.332;18.034;2023-11-19T02:18:56;101490.03;;;5.50;60.63
18821;BME280;9539;59.332;18.034;2023-11-19T02:21:18;101485.13;;;5.69;59.21
18821;BME280;9539;59.332;18.034;2023-11-19T02:23:40;101481.97;;;5.86;58.26
18821;BME280;9539;59.332;18.034;2023-11-19T02:26:09;101480.38;;;5.80;58.40
18821;BME280;9539;59.332;18.034;2023-11-19T02:28:37;101473.06;;;5.91;58.19
18821;BME280;9539;59.332;18.034;2023-11-19T02:30:59;101485.69;;;5.49;59.05
18821;BME280;9539;59.332;18.034;2023-11-19T02:33:21;101479.69;;;5.12;60.00
18821;BME280;9539;59.332;18.034;2023-11-19T02:35:43;101467.44;;;5.11;59.19
18821;BME280;9539;59.332;18.034;2023-11-19T02:38:05;101461.59;;;3.92;63.70
18821;BME280;9539;59.332;18.034;2023-11-19T02:40:30;101461.75;;;4.94;60.85
18821;BME280;9539;59.332;18.034;2023-11-19T02:42:52;101459.56;;;4.77;62.21
18821;BME280;9539;59.332;18.034;2023-11-19T02:45:16;101457.34;;;4.94;61.04
18821;BME280;9539;59.332;18.034;2023-11-19T02:47:38;101447.69;;;5.89;58.40
18821;BME280;9539;59.332;18.034;2023-11-19T02:50:00;101445.63;;;5.98;57.48
18821;BME280;9539;59.332;18.034;2023-11-19T02:52:22;101436.22;;;6.18;56.76
18821;BME280;9539;59.332;18.034;2023-11-19T02:54:45;101446.59;;;5.65;57.89
18821;BME280;9539;59.332;18.034;2023-11-19T02:57:07;101434.44;;;5.90;57.93
18821;BME280;9539;59.332;18.034;2023-11-19T02:59:31;101429.63;;;6.05;57.31
18821;BME280;9539;59.332;18.034;2023-11-19T03:02:00;101419.78;;;6.10;56.17
18821;BME280;9539;59.332;18.034;2023-11-19T03:04:22;101416.59;;;5.71;57.15
18821;BME280;9539;59.332;18.034;2023-11-19T03:06:47;101410.63;;;5.64;57.92
18821;BME280;9539;59.332;18.034;2023-11-19T03:09:09;101413.63;;;5.52;58.40
18821;BME280;9539;59.332;18.034;2023-11-19T03:11:31;101405.34;;;5.66;58.44
18821;BME280;9539;59.332;18.034;2023-11-19T03:13:53;101406.72;;;5.18;58.56
18821;BME280;9539;59.332;18.034;2023-11-19T03:16:15;101410.47;;;5.41;59.25
18821;BME280;9539;59.332;18.034;2023-11-19T03:18:39;101408.22;;;5.87;57.50
18821;BME280;9539;59.332;18.034;2023-11-19T03:21:00;101408.91;;;5.94;57.39
18821;BME280;9539;59.332;18.034;2023-11-19T03:23:23;101392.53;;;5.53;57.94
18821;BME280;9539;59.332;18.034;2023-11-19T03:25:45;101382.31;;;5.44;58.47
18821;BME280;9539;59.332;18.034;2023-11-19T03:28:07;101389.34;;;4.13;63.17
18821;BME280;9539;59.332;18.034;2023-11-19T03:30:29;101387.66;;;3.72;67.08
18821;BME280;9539;59.332;18.034;2023-11-19T03:32:52;101378.53;;;4.25;64.14
18821;BME280;9539;59.332;18.034;2023-11-19T03:35:14;101382.41;;;3.73;67.58
18821;BME280;9539;59.332;18.034;2023-11-19T03:37:36;101376.81;;;4.58;64.49
18821;BME280;9539;59.332;18.034;2023-11-19T03:39:58;101375.81;;;4.94;62.65
18821;BME280;9539;59.332;18.034;2023-11-19T03:42:21;101378.22;;;4.71;62.15
18821;BME280;9539;59.332;18.034;2023-11-19T03:44:43;101373.53;;;5.13;61.77
18821;BME280;9539;59.332;18.034;2023-11-19T03:47:05;101362.16;;;5.12;61.17
18821;BME280;9539;59.332;18.034;2023-11-19T03:49:27;101363.13;;;5.10;62.33
18821;BME280;9539;59.332;18.034;2023-11-19T03:51:50;101352.06;;;3.97;65.90
18821;BME280;9539;59.332;18.034;2023-11-19T03:54:12;101364.75;;;4.51;65.56
18821;BME280;9539;59.332;18.034;2023-11-19T03:56:34;101362.75;;;4.26;67.10
18821;BME280;9539;59.332;18.034;2023-11-19T03:58:56;101352.81;;;4.71;66.07
18821;BME280;9539;59.332;18.034;2023-11-19T04:01:18;101350.84;;;5.10;63.12
18821;BME280;9539;59.332;18.034;2023-11-19T04:03:40;101354.22;;;5.14;62.18
18821;BME280;9539;59.332;18.034;2023-11-19T04:06:03;101344.94;;;5.32;61.42
18821;BME280;9539;59.332;18.034;2023-11-19T04:08:26;101344.19;;;4.97;61.73
18821;BME280;9539;59.332;18.034;2023-11-19T04:10:48;101333.91;;;5.48;61.43
18821;BME280;9539;59.332;18.034;2023-11-19T04:13:10;101333.00;;;5.49;61.07
18821;BME280;9539;59.332;18.034;2023-11-19T04:15:33;101323.94;;;4.99;63.05
18821;BME280;9539;59.332;18.034;2023-11-19T04:17:54;101328.50;;;4.94;64.32
18821;BME280;9539;59.332;18.034;2023-11-19T04:20:16;101314.16;;;4.73;63.70
18821;BME280;9539;59.332;18.034;2023-11-19T04:22:38;101327.41;;;4.70;64.65
18821;BME280;9539;59.332;18.034;2023-11-19T04:25:03;101320.84;;;4.54;64.81
18821;BME280;9539;59.332;18.034;2023-11-19T04:27:25;101321.97;;;4.12;67.07
18821;BME280;9539;59.332;18.034;2023-11-19T04:29:47;101315.16;;;3.68;70.06
18821;BME280;9539;59.332;18.034;2023-11-19T04:32:09;101315.78;;;4.14;69.38
18821;BME280;9539;59.332;18.034;2023-11-19T04:34:31;101307.13;;;3.75;68.56
18821;BME280;9539;59.332;18.034;2023-11-19T04:36:53;101306.72;;;3.55;71.28
18821;BME280;9539;59.332;18.034;2023-11-19T04:39:15;101304.22;;;4.54;66.41
18821;BME280;9539;59.332;18.034;2023-11-19T04:41:47;101304.22;;;4.54;67.81
18821;BME280;9539;59.332;18.034;2023-11-19T04:44:09;101298.28;;;4.78;65.75
18821;BME280;9539;59.332;18.034;2023-11-19T04:46:31;101297.03;;;3.18;73.08
18821;BME280;9539;59.332;18.034;2023-11-19T04:48:53;101296.31;;;4.86;66.65
18821;BME280;9539;59.332;18.034;2023-11-19T04:51:15;101298.28;;;3.78;70.54
18821;BME280;9539;59.332;18.034;2023-11-19T04:53:40;101291.53;;;5.28;65.11
18821;BME280;9539;59.332;18.034;2023-11-19T04:56:07;101289.25;;;5.73;62.97
18821;BME280;9539;59.332;18.034;2023-11-19T04:58:31;101292.84;;;4.21;66.74
18821;BME280;9539;59.332;18.034;2023-11-19T05:00:53;101288.03;;;4.36;69.62
18821;BME280;9539;59.332;18.034;2023-11-19T05:03:15;101284.06;;;3.88;68.17
18821;BME280;9539;59.332;18.034;2023-11-19T05:05:36;101277.22;;;3.81;71.63
18821;BME280;9539;59.332;18.034;2023-11-19T05:07:58;101278.03;;;4.51;68.84
18821;BME280;9539;59.332;18.034;2023-11-19T05:10:20;101280.78;;;4.46;68.41
18821;BME280;9539;59.332;18.034;2023-11-19T05:12:42;101272.56;;;5.18;64.81
18821;BME280;9539;59.332;18.034;2023-11-19T05:15:06;101266.22;;;4.65;66.11
18821;BME280;9539;59.332;18.034;2023-11-19T05:17:28;101275.91;;;4.94;66.69
18821;BME280;9539;59.332;18.034;2023-11-19T05:19:50;101264.81;;;4.85;64.92
18821;BME280;9539;59.332;18.034;2023-11-19T05:22:12;101267.47;;;4.83;67.25
18821;BME280;9539;59.332;18.034;2023-11-19T05:24:35;101260.03;;;4.97;64.43
18821;BME280;9539;59.332;18.034;2023-11-19T05:26:57;101257.47;;;6.06;61.84
18821;BME280;9539;59.332;18.034;2023-11-19T05:29:19;101254.25;;;6.22;61.39
18821;BME280;9539;59.332;18.034;2023-11-19T05:31:42;101258.38;;;6.05;60.82
18821;BME280;9539;59.332;18.034;2023-11-19T05:34:08;101251.47;;;5.48;62.23
18821;BME280;9539;59.332;18.034;2023-11-19T05:36:29;101245.41;;;5.72;60.82
18821;BME280;9539;59.332;18.034;2023-11-19T05:38:51;101252.94;;;5.56;60.80
18821;BME280;9539;59.332;18.034;2023-11-19T05:41:13;101251.88;;;4.46;65.53
18821;BME280;9539;59.332;18.034;2023-11-19T05:43:35;101251.56;;;3.92;68.63
18821;BME280;9539;59.332;18.034;2023-11-19T05:45:58;101244.88;;;4.14;69.53
18821;BME280;9539;59.332;18.034;2023-11-19T05:48:21;101234.94;;;3.91;70.66
18821;BME280;9539;59.332;18.034;2023-11-19T05:50:43;101234.50;;;4.71;68.62
18821;BME280;9539;59.332;18.034;2023-11-19T05:53:05;101226.81;;;5.50;64.46
18821;BME280;9539;59.332;18.034;2023-11-19T05:55:27;101228.13;;;5.37;63.25
18821;BME280;9539;59.332;18.034;2023-11-19T05:57:49;101227.09;;;5.41;63.38
18821;BME280;9539;59.332;18.034;2023-11-19T06:00:13;101228.09;;;4.80;65.02
18821;BME280;9539;59.332;18.034;2023-11-19T06:02:36;101217.88;;;4.71;67.22
18821;BME280;9539;59.332;18.034;2023-11-19T06:05:00;101213.34;;;5.86;64.04
18821;BME280;9539;59.332;18.034;2023-11-19T06:07:21;101212.31;;;6.16;60.94
18821;BME280;9539;59.332;18.034;2023-11-19T06:09:43;101223.63;;;6.20;61.41
18821;BME280;9539;59.332;18.034;2023-11-19T06:12:05;101224.25;;;6.26;61.31
18821;BME280;9539;59.332;18.034;2023-11-19T06:14:27;101223.63;;;5.67;61.80
18821;BME280;9539;59.332;18.034;2023-11-19T06:16:49;101221.19;;;5.35;63.60
18821;BME280;9539;59.332;18.034;2023-11-19T06:19:12;101229.97;;;5.61;64.43
18821;BME280;9539;59.332;18.034;2023-11-19T06:21:36;101221.38;;;6.09;61.52
18821;BME280;9539;59.332;18.034;2023-11-19T06:23:58;101219.91;;;6.00;63.34
18821;BME280;9539;59.332;18.034;2023-11-19T06:26:20;101222.34;;;5.79;63.04
18821;BME280;9539;59.332;18.034;2023-11-19T06:28:43;101218.09;;;6.51;63.08
18821;BME280;9539;59.332;18.034;2023-11-19T06:31:05;101213.97;;;6.90;60.02
18821;BME280;9539;59.332;18.034;2023-11-19T06:33:27;101207.41;;;5.79;61.58
18821;BME280;9539;59.332;18.034;2023-11-19T06:35:49;101217.09;;;6.05;62.13
18821;BME280;9539;59.332;18.034;2023-11-19T06:38:13;101214.63;;;6.25;61.96
18821;BME280;9539;59.332;18.034;2023-11-19T06:40:34;101209.31;;;5.49;63.77
18821;BME280;9539;59.332;18.034;2023-11-19T06:42:57;101208.06;;;5.33;65.21
18821;BME280;9539;59.332;18.034;2023-11-19T06:45:19;101201.91;;;5.87;63.30
18821;BME280;9539;59.332;18.034;2023-11-19T06:47:41;101193.78;;;6.42;61.68
18821;BME280;9539;59.332;18.034;2023-11-19T06:50:03;101190.28;;;6.89;59.96
18821;BME280;9539;59.332;18.034;2023-11-19T06:52:27;101195.75;;;5.88;62.05
18821;BME280;9539;59.332;18.034;2023-11-19T06:54:51;101177.94;;;4.58;67.70
18821;BME280;9539;59.332;18.034;2023-11-19T06:57:13;101186.19;;;4.46;68.93
18821;BME280;9539;59.332;18.034;2023-11-19T06:59:35;101186.28;;;4.72;70.46
18821;BME280;9539;59.332;18.034;2023-11-19T07:01:57;101176.94;;;4.92;67.40
18821;BME280;9539;59.332;18.034;2023-11-19T07:04:19;101180.75;;;5.63;64.03
18821;BME280;9539;59.332;18.034;2023-11-19T07:06:41;101178.38;;;5.30;66.08
18821;BME280;9539;59.332;18.034;2023-11-19T07:09:04;101177.19;;;5.12;66.90
18821;BME280;9539;59.332;18.034;2023-11-19T07:11:31;101164.78;;;6.19;63.32
18821;BME280;9539;59.332;18.034;2023-11-19T07:13:53;101178.16;;;5.36;64.29
18821;BME280;9539;59.332;18.034;2023-11-19T07:16:15;101177.13;;;4.86;67.08
18821;BME280;9539;59.332;18.034;2023-11-19T07:18:37;101168.06;;;6.01;64.40
18821;BME280;9539;59.332;18.034;2023-11-19T07:20:59;101172.00;;;6.14;63.40
18821;BME280;9539;59.332;18.034;2023-11-19T07:23:21;101181.38;;;5.96;62.92
18821;BME280;9539;59.332;18.034;2023-11-19T07:25:43;101171.00;;;6.41;62.23
18821;BME280;9539;59.332;18.034;2023-11-19T07:28:08;101177.09;;;5.94;62.17
18821;BME280;9539;59.332;18.034;2023-11-19T07:30:31;101183.06;;;5.46;63.94
18821;BME280;9539;59.332;18.034;2023-11-19T07:32:52;101176.97;;;5.97;63.06
18821;BME280;9539;59.332;18.034;2023-11-19T07:35:15;101174.00;;;5.81;62.94
18821;BME280;9539;59.332;18.034;2023-11-19T07:37:37;101181.72;;;4.79;67.09
18821;BME280;9539;59.332;18.034;2023-11-19T07:39:59;101173.91;;;5.32;67.26
18821;BME280;9539;59.332;18.034;2023-11-19T07:42:21;101179.53;;;5.47;65.71
18821;BME280;9539;59.332;18.034;2023-11-19T07:44:45;101168.88;;;6.28;63.23
18821;BME280;9539;59.332;18.034;2023-11-19T07:47:07;101162.81;;;6.94;60.48
18821;BME280;9539;59.332;18.034;2023-11-19T07:49:31;101154.13;;;5.97;62.54
18821;BME280;9539;59.332;18.034;2023-11-19T07:51:53;101166.84;;;6.81;60.63
18821;BME280;9539;59.332;18.034;2023-11-19T07:54:14;101154.00;;;6.25;60.59
18821;BME280;9539;59.332;18.034;2023-11-19T07:56:36;101162.38;;;5.88;63.95
18821;BME280;9539;59.332;18.034;2023-11-19T07:58:58;101154.19;;;6.21;61.39
18821;BME280;9539;59.332;18.034;2023-11-19T08:01:22;101168.97;;;6.71;60.70
18821;BME280;9539;59.332;18.034;2023-11-19T08:03:45;101166.09;;;6.31;60.93
18821;BME280;9539;59.332;18.034;2023-11-19T08:06:07;101163.06;;;6.18;61.43
18821;BME280;9539;59.332;18.034;2023-11-19T08:08:29;101159.91;;;6.55;61.43
18821;BME280;9539;59.332;18.034;2023-11-19T08:10:53;101170.75;;;6.71;60.73
18821;BME280;9539;59.332;18.034;2023-11-19T08:13:17;101162.38;;;6.36;61.30
18821;BME280;9539;59.332;18.034;2023-11-19T08:15:39;101160.88;;;5.80;63.96
18821;BME280;9539;59.332;18.034;2023-11-19T08:18:03;101162.59;;;5.81;65.32
18821;BME280;9539;59.332;18.034;2023-11-19T08:20:25;101167.31;;;6.46;63.08
18821;BME280;9539;59.332;18.034;2023-11-19T08:22:47;101163.94;;;6.65;61.19
18821;BME280;9539;59.332;18.034;2023-11-19T08:25:09;101162.25;;;6.86;60.81
18821;BME280;9539;59.332;18.034;2023-11-19T08:27:31;101154.34;;;6.86;60.24
18821;BME280;9539;59.332;18.034;2023-11-19T08:29:53;101155.53;;;6.08;62.77
18821;BME280;9539;59.332;18.034;2023-11-19T08:32:17;101149.69;;;6.93;60.40
18821;BME280;9539;59.332;18.034;2023-11-19T08:34:40;101156.22;;;7.70;58.14
18821;BME280;9539;59.332;18.034;2023-11-19T08:37:02;101154.56;;;7.25;58.93
18821;BME280;9539;59.332;18.034;2023-11-19T08:39:24;101151.41;;;7.15;59.29
18821;BME280;9539;59.332;18.034;2023-11-19T08:41:46;101149.19;;;6.13;61.22
18821;BME280;9539;59.332;18.034;2023-11-19T08:44:08;101147.38;;;6.38;60.67
18821;BME280;9539;59.332;18.034;2023-11-19T08:46:30;101139.59;;;6.59;62.03
18821;BME280;9539;59.332;18.034;2023-11-19T08:48:52;101139.78;;;7.19;59.50
18821;BME280;9539;59.332;18.034;2023-11-19T08:51:18;101148.75;;;6.25;61.23
18821;BME280;9539;59.332;18.034;2023-11-19T08:53:40;101147.78;;;6.96;59.76
18821;BME280;9539;59.332;18.034;2023-11-19T08:56:02;101140.91;;;6.47;62.09
18821;BME280;9539;59.332;18.034;2023-11-19T08:58:24;101132.75;;;6.07;64.84
18821;BME280;9539;59.332;18.034;2023-11-19T09:00:46;101141.19;;;5.65;63.78
18821;BME280;9539;59.332;18.034;2023-11-19T09:03:07;101140.69;;;6.53;63.47
18821;BME280;9539;59.332;18.034;2023-11-19T09:05:29;101134.78;;;6.92;60.62
18821;BME280;9539;59.332;18.034;2023-11-19T09:07:53;101137.78;;;7.04;60.41
18821;BME280;9539;59.332;18.034;2023-11-19T09:10:15;101140.31;;;6.86;60.19
18821;BME280;9539;59.332;18.034;2023-11-19T09:12:39;101133.31;;;7.06;59.50
18821;BME280;9539;59.332;18.034;2023-11-19T09:15:01;101131.72;;;5.07;64.79
18821;BME280;9539;59.332;18.034;2023-11-19T09:17:23;101131.72;;;5.35;66.64
18821;BME280;9539;59.332;18.034;2023-11-19T09:19:45;101122.75;;;5.14;69.24
18821;BME280;9539;59.332;18.034;2023-11-19T09:22:06;101125.34;;;5.67;66.79
18821;BME280;9539;59.332;18.034;2023-11-19T09:24:29;101112.53;;;5.82;64.51
18821;BME280;9539;59.332;18.034;2023-11-19T09:26:51;101112.69;;;6.72;61.73
18821;BME280;9539;59.332;18.034;2023-11-19T09:29:15;101113.97;;;5.91;63.87
18821;BME280;9539;59.332;18.034;2023-11-19T09:31:38;101102.06;;;6.52;64.09
18821;BME280;9539;59.332;18.034;2023-11-19T09:34:00;101096.59;;;4.81;67.65
18821;BME280;9539;59.332;18.034;2023-11-19T09:36:22;101097.19;;;5.44;68.14
18821;BME280;9539;59.332;18.034;2023-11-19T09:38:44;101088.31;;;5.46;68.30
18821;BME280;9539;59.332;18.034;2023-11-19T09:41:09;101107.16;;;6.33;67.11
18821;BME280;9539;59.332;18.034;2023-11-19T09:43:33;101104.94;;;5.98;65.79
18821;BME280;9539;59.332;18.034;2023-11-19T09:45:55;101088.75;;;5.84;66.44
18821;BME280;9539;59.332;18.034;2023-11-19T09:48:18;101098.34;;;5.61;66.85
18821;BME280;9539;59.332;18.034;2023-11-19T09:50:41;101095.53;;;6.16;66.14
18821;BME280;9539;59.332;18.034;2023-11-19T09:53:03;101085.56;;;4.70;70.85
18821;BME280;9539;59.332;18.034;2023-11-19T09:55:25;101076.19;;;4.62;71.06
18821;BME280;9539;59.332;18.034;2023-11-19T09:57:51;101080.56;;;5.43;71.06
18821;BME280;9539;59.332;18.034;2023-11-19T10:00:14;101079.28;;;6.73;64.68
18821;BME280;9539;59.332;18.034;2023-11-19T10:02:37;101053.91;;;6.91;62.79
18821;BME280;9539;59.332;18.034;2023-11-19T10:04:59;101066.06;;;6.95;64.03
18821;BME280;9539;59.332;18.034;2023-11-19T10:07:26;101055.13;;;5.42;68.67
18821;BME280;9539;59.332;18.034;2023-11-19T10:09:48;101063.94;;;6.37;65.69
18821;BME280;9539;59.332;18.034;2023-11-19T10:12:09;101050.84;;;6.13;64.93
18821;BME280;9539;59.332;18.034;2023-11-19T10:14:35;101059.66;;;6.80;63.60
18821;BME280;9539;59.332;18.034;2023-11-19T10:17:01;101044.59;;;6.38;65.82
18821;BME280;9539;59.332;18.034;2023-11-19T10:19:24;101035.94;;;7.20;63.54
18821;BME280;9539;59.332;18.034;2023-11-19T10:21:46;101029.34;;;7.10;60.15
18821;BME280;9539;59.332;18.034;2023-11-19T10:24:08;101034.50;;;7.54;61.45
18821;BME280;9539;59.332;18.034;2023-11-19T10:26:30;101040.72;;;6.91;64.54
18821;BME280;9539;59.332;18.034;2023-11-19T10:28:55;101035.72;;;7.86;60.56
18821;BME280;9539;59.332;18.034;2023-11-19T10:31:20;101032.06;;;7.49;60.43
18821;BME280;9539;59.332;18.034;2023-11-19T10:33:45;101030.91;;;6.06;64.91
18821;BME280;9539;59.332;18.034;2023-11-19T10:36:08;101019.94;;;6.83;64.87
18821;BME280;9539;59.332;18.034;2023-11-19T10:38:30;101027.22;;;6.98;61.35
18821;BME280;9539;59.332;18.034;2023-11-19T10:40:53;101019.94;;;6.83;63.55
18821;BME280;9539;59.332;18.034;2023-11-19T10:43:15;101012.28;;;7.78;61.42
18821;BME280;9539;59.332;18.034;2023-11-19T10:45:38;101021.47;;;6.00;63.81
18821;BME280;9539;59.332;18.034;2023-11-19T10:48:02;101015.06;;;6.07;64.74
18821;BME280;9539;59.332;18.034;2023-11-19T10:50:27;101012.72;;;8.46;60.99
18821;BME280;9539;59.332;18.034;2023-11-19T10:52:51;100999.97;;;9.24;57.10
18821;BME280;9539;59.332;18.034;2023-11-19T10:55:15;101004.69;;;8.10;54.92
18821;BME280;9539;59.332;18.034;2023-11-19T10:57:40;101012.75;;;8.63;56.33
18821;BME280;9539;59.332;18.034;2023-11-19T11:00:06;101006.56;;;9.50;53.85
18821;BME280;9539;59.332;18.034;2023-11-19T11:02:35;101008.13;;;9.02;54.55
18821;BME280;9539;59.332;18.034;2023-11-19T11:05:05;101003.06;;;9.49;54.66
18821;BME280;9539;59.332;18.034;2023-11-19T11:07:30;101003.06;;;9.49;54.66
18821;BME280;9539;59.332;18.034;2023-11-19T11:09:53;100996.34;;;9.59;53.05
18821;BME280;9539;59.332;18.034;2023-11-19T11:12:17;100996.34;;;9.59;53.05
18821;BME280;9539;59.332;18.034;2023-11-19T11:14:44;100996.34;;;9.59;53.05
18821;BME280;9539;59.332;18.034;2023-11-19T11:17:09;100996.34;;;9.59;53.05
18821;BME280;9539;59.332;18.034;2023-11-19T11:19:33;100992.22;;;6.08;64.63
18821;BME280;9539;59.332;18.034;2023-11-19T11:21:57;100987.00;;;7.34;62.77
18821;BME280;9539;59.332;18.034;2023-11-19T11:24:37;100982.41;;;7.39;61.69
18821;BME280;9539;59.332;18.034;2023-11-19T11:27:23;100976.31;;;7.37;61.43
18821;BME280;9539;59.332;18.034;2023-11-19T11:29:59;100978.38;;;6.68;61.82
18821;BME280;9539;59.332;18.034;2023-11-19T11:32:31;100975.59;;;7.72;60.55
18821;BME280;9539;59.332;18.034;2023-11-19T11:35:08;100977.53;;;6.46;62.23
18821;BME280;9539;59.332;18.034;2023-11-19T11:37:39;100976.22;;;6.77;63.59
18821;BME280;9539;59.332;18.034;2023-11-19T11:40:06;100970.75;;;6.82;63.63
18821;BME280;9539;59.332;18.034;2023-11-19T11:42:34;100968.41;;;4.35;70.35
18821;BME280;9539;59.332;18.034;2023-11-19T11:44:59;100968.41;;;4.35;70.35
18821;BME280;9539;59.332;18.034;2023-11-19T11:47:20;100971.03;;;4.63;75.62
18821;BME280;9539;59.332;18.034;2023-11-19T11:49:43;100969.69;;;4.78;75.20
18821;BME280;9539;59.332;18.034;2023-11-19T11:52:05;100960.91;;;6.43;69.12
18821;BME280;9539;59.332;18.034;2023-11-19T11:54:29;100966.66;;;5.38;72.99
18821;BME280;9539;59.332;18.034;2023-11-19T11:57:01;100972.34;;;5.99;70.28
18821;BME280;9539;59.332;18.034;2023-11-19T11:59:23;100969.41;;;5.83;71.86
18821;BME280;9539;59.332;18.034;2023-11-19T12:01:57;100971.81;;;5.18;71.16
18821;BME280;9539;59.332;18.034;2023-11-19T12:04:19;100964.69;;;5.45;70.44
18821;BME280;9539;59.332;18.034;2023-11-19T12:06:41;100972.56;;;4.70;77.90
18821;BME280;9539;59.332;18.034;2023-11-19T12:09:03;100963.31;;;5.58;73.42
18821;BME280;9539;59.332;18.034;2023-11-19T12:11:28;100969.31;;;4.62;79.13
18821;BME280;9539;59.332;18.034;2023-11-19T12:13:54;100964.81;;;5.17;75.59
18821;BME280;9539;59.332;18.034;2023-11-19T12:16:22;100962.97;;;4.41;79.65
18821;BME280;9539;59.332;18.034;2023-11-19T12:18:44;100961.16;;;4.43;78.64
18821;BME280;9539;59.332;18.034;2023-11-19T12:21:07;100955.09;;;4.94;76.01
18821;BME280;9539;59.332;18.034;2023-11-19T12:23:31;100955.22;;;6.54;69.23
18821;BME280;9539;59.332;18.034;2023-11-19T12:25:54;100942.34;;;6.47;68.38
18821;BME280;9539;59.332;18.034;2023-11-19T12:28:17;100950.34;;;4.26;74.61
18821;BME280;9539;59.332;18.034;2023-11-19T12:30:39;100944.22;;;5.53;72.31
18821;BME280;9539;59.332;18.034;2023-11-19T12:33:07;100934.34;;;5.11;73.65
18821;BME280;9539;59.332;18.034;2023-11-19T12:35:30;100935.06;;;5.15;72.82
18821;BME280;9539;59.332;18.034;2023-11-19T12:37:52;100936.13;;;5.57;70.62